METAR Data
IDs: Format: Raw Decoded Include TAF

Data at: 0204 UTC 01 Mar 2021

LEBA 010130Z AUTO VRB02KT 9999 OVC039 10/08 Q1018